Hlavní strana
METAR-TAF:

METAR-TAF

Letiště :

N'Djamena, Čad

zeměpisná šířka: 12-08N, zeměpisná délka: 015-02E, výška: 295 m

Aktuální stav počasí

Zpráva byla vytvořena před 1 hodinou a 19 minutami, v 08:00 UTC
Severoseverovýchodní vítr 13 kt
Teplota 21°C
Vlhkost vzduchu 21%
Tlak 1015 hPa
Viditelnost: 5000 m

METAR: FTTJ 240800Z 03013KT 5000 NSC 21/M02 Q1015 NOSIG

Čas: 10:19 (09:19 UTC)

Předpověď počasí

Zpráva byla vytvořena před 4 hodinami a 19 minutami, v 05:00 UTC
Předpověď platná od 24 v 06 UTC do 25 v 12 UTC
Severoseverovýchodní vítr 8 kt
Viditelnost: 5000 m
rozsáhlý prach
Změna
od 24 v 12 UTC do 24 v 14 UTC
Viditelnost: 6000 m
Dočasný
od 24 v 16 UTC do 24 v 20 UTC
Viditelnost: 4000 m
zákal
Dočasný
od 25 v 04 UTC do 25 v 10 UTC
Viditelnost: 3000 m
rozsáhlý prach

TAF: FTTJ 240500Z 2406/2512 02008KT 5000 DU NSC BECMG 2412/2414 6000 TEMPO 2416/2420 4000 HZ TEMPO 2504/2510 3000 DU

Stav a předpovědi počasí z více než 4 000 letišť (zprávy METAR a TAF).

Červené a žluté tečky na mapě představují dostupné meteorologické stanice.

Když kurzor umístíte na tečku, zobrazí se název stanice.

Pak kliknutím zobrazíte stav a předpověď počasí.

Chcete-li změnit mapu, kliknutím na zelené tlačítko se znaménkem +mapu přiblížíte, kliknutím na zelené tlačítko se znaménkem – mapu oddálíte a kliknutím na zelené šipky přejdete na sousední mapy.


METAR-TAF: